createdAt,value
2022-08-27T00:01:02.235Z,99.90
2022-08-27T00:06:05.086Z,99.90
2022-08-27T00:11:11.531Z,99.90
2022-08-27T00:16:15.922Z,99.90
2022-08-27T00:21:18.923Z,99.90
2022-08-27T00:26:21.472Z,99.90
2022-08-27T00:31:27.517Z,99.90
2022-08-27T00:36:30.366Z,99.90
2022-08-27T00:41:33.530Z,99.90
2022-08-27T00:46:39.132Z,99.90
2022-08-27T00:51:41.928Z,99.90
2022-08-27T00:56:45.564Z,99.90
2022-08-27T01:02:12.868Z,99.90
2022-08-27T01:07:15.501Z,99.90
2022-08-27T01:12:18.987Z,99.90
2022-08-27T01:17:21.550Z,99.90
2022-08-27T01:22:43.302Z,99.90
2022-08-27T01:27:47.319Z,99.90
2022-08-27T01:32:50.077Z,99.90
2022-08-27T01:38:02.118Z,99.90
2022-08-27T01:43:05.119Z,99.90
2022-08-27T01:48:10.563Z,99.90
2022-08-27T01:53:16.953Z,99.90
2022-08-27T01:58:27.278Z,99.90
2022-08-27T02:03:30.043Z,99.90
2022-08-27T02:08:33.293Z,99.90
2022-08-27T02:13:36.484Z,99.90
2022-08-27T02:18:41.736Z,99.90
2022-08-27T02:23:45.556Z,99.90
2022-08-27T02:28:48.120Z,99.90
2022-08-27T02:33:50.675Z,99.90
2022-08-27T02:38:53.201Z,99.90
2022-08-27T02:43:55.784Z,99.90
2022-08-27T02:48:58.297Z,99.90
2022-08-27T02:54:02.214Z,99.90
2022-08-27T02:59:05.976Z,99.90
2022-08-27T03:04:08.553Z,99.90
2022-08-27T03:09:14.239Z,99.90
2022-08-27T03:14:17.164Z,99.90
2022-08-27T03:19:24.120Z,99.90
2022-08-27T03:24:26.814Z,99.90
2022-08-27T03:29:29.389Z,99.90
2022-08-27T03:34:31.899Z,99.90
2022-08-27T03:39:34.472Z,99.90
2022-08-27T03:44:36.946Z,99.90
2022-08-27T03:49:39.528Z,99.90
2022-08-27T03:54:42.702Z,99.90
2022-08-27T03:59:45.409Z,99.90
2022-08-27T04:04:47.976Z,99.90
2022-08-27T04:09:50.602Z,99.90
2022-08-27T04:14:53.714Z,99.90
2022-08-27T04:19:56.277Z,99.90
2022-08-27T04:24:58.937Z,99.90
2022-08-27T04:30:02.132Z,99.90
2022-08-27T04:35:37.282Z,99.90
2022-08-27T04:40:58.446Z,99.90
2022-08-27T04:46:00.977Z,99.90
2022-08-27T04:51:03.819Z,99.90
2022-08-27T04:56:06.793Z,99.90
2022-08-27T05:01:18.992Z,99.90
2022-08-27T05:06:22.335Z,99.90
2022-08-27T05:11:27.981Z,99.90
2022-08-27T05:16:30.858Z,99.90
2022-08-27T05:21:35.755Z,99.90
2022-08-27T05:26:38.331Z,99.90
2022-08-27T05:31:41.679Z,99.90
2022-08-27T05:36:48.086Z,99.90
2022-08-27T05:41:53.043Z,99.90
2022-08-27T05:46:55.595Z,99.90
2022-08-27T05:51:58.140Z,99.90
2022-08-27T05:57:00.639Z,99.90
2022-08-27T06:02:04.230Z,99.90
2022-08-27T06:07:09.398Z,99.90
2022-08-27T06:12:12.022Z,99.90
2022-08-27T06:17:14.716Z,99.90
2022-08-27T06:22:17.435Z,99.90
2022-08-27T06:27:20.561Z,99.90
2022-08-27T06:32:24.178Z,99.90
2022-08-27T06:37:28.461Z,99.90
2022-08-27T06:42:31.723Z,99.90
2022-08-27T06:47:37.392Z,99.90
2022-08-27T06:52:43.036Z,99.90
2022-08-27T06:57:45.611Z,99.90
2022-08-27T07:02:49.644Z,99.90
2022-08-27T07:07:52.417Z,99.90
2022-08-27T07:12:55.249Z,99.90
2022-08-27T07:17:58.851Z,99.90
2022-08-27T07:23:01.417Z,99.90
2022-08-27T07:28:04.016Z,99.90
2022-08-27T07:33:06.533Z,99.90
2022-08-27T07:38:11.973Z,99.90
2022-08-27T07:43:33.491Z,99.90
2022-08-27T07:48:36.646Z,99.90
2022-08-27T07:53:40.843Z,99.90
2022-08-27T07:58:44.322Z,99.90
2022-08-27T08:03:47.268Z,99.80
2022-08-27T08:08:49.977Z,98.30
2022-08-27T08:13:54.153Z,98.40
2022-08-27T08:18:56.723Z,99.60
2022-08-27T08:24:00.201Z,97.60
2022-08-27T08:29:05.159Z,98.90
2022-08-27T08:34:08.240Z,96.90
2022-08-27T08:39:10.986Z,96.70
2022-08-27T08:44:32.766Z,96.10
2022-08-27T08:49:42.337Z,95.60
2022-08-27T08:54:45.058Z,95.60
2022-08-27T08:59:55.995Z,95.70
2022-08-27T09:05:04.519Z,95.30
2022-08-27T09:10:40.175Z,94.70
2022-08-27T09:15:42.802Z,94.50
2022-08-27T09:20:49.697Z,94.30
2022-08-27T09:25:52.350Z,93.20
2022-08-27T09:30:58.172Z,93.50
2022-08-27T09:36:08.868Z,93.00
2022-08-27T09:41:21.668Z,92.60
2022-08-27T09:46:26.918Z,93.00
2022-08-27T09:51:30.156Z,91.30
2022-08-27T09:56:37.639Z,91.20
2022-08-27T10:02:02.851Z,91.50
2022-08-27T10:07:30.118Z,90.90
2022-08-27T10:12:52.011Z,90.90
2022-08-27T10:18:09.218Z,91.50
2022-08-27T10:23:31.760Z,90.90
2022-08-27T10:28:48.887Z,90.80
2022-08-27T10:33:51.357Z,90.60
2022-08-27T10:39:09.667Z,91.30
2022-08-27T10:45:04.488Z,90.20
2022-08-27T10:50:21.363Z,90.00
2022-08-27T10:55:33.647Z,91.50
2022-08-27T11:00:45.234Z,87.00
2022-08-27T11:05:49.989Z,87.80
2022-08-27T11:10:56.987Z,89.00
2022-08-27T11:16:01.320Z,87.20
2022-08-27T11:21:13.146Z,85.80
2022-08-27T11:26:16.188Z,84.00
2022-08-27T11:31:40.830Z,82.10
2022-08-27T11:37:17.184Z,82.80
2022-08-27T11:42:28.660Z,82.60
2022-08-27T11:47:31.148Z,80.20
2022-08-27T11:52:40.104Z,80.50
2022-08-27T11:57:43.191Z,81.30
2022-08-27T12:02:58.019Z,81.60
2022-08-27T12:08:17.807Z,82.10
2022-08-27T12:13:25.762Z,82.20
2022-08-27T12:18:34.167Z,80.30
2022-08-27T12:23:42.937Z,82.40
2022-08-27T12:28:45.718Z,82.00
2022-08-27T12:33:51.617Z,83.60
2022-08-27T12:38:58.921Z,85.30
2022-08-27T12:44:06.396Z,85.70
2022-08-27T12:49:26.171Z,85.30
2022-08-27T12:54:59.195Z,86.50
2022-08-27T13:00:26.252Z,87.00
2022-08-27T13:05:39.011Z,87.50
2022-08-27T13:10:41.508Z,87.60
2022-08-27T13:15:47.813Z,86.90
2022-08-27T13:21:00.095Z,85.50
2022-08-27T13:26:11.344Z,87.30
2022-08-27T13:31:15.305Z,88.50
2022-08-27T13:36:51.268Z,88.20
2022-08-27T13:41:54.732Z,87.80
2022-08-27T13:47:04.611Z,89.30
2022-08-27T13:52:21.064Z,88.50
2022-08-27T13:57:39.566Z,89.40
2022-08-27T14:02:42.597Z,88.50
2022-08-27T14:08:11.327Z,90.60
2022-08-27T14:13:22.877Z,90.30
2022-08-27T14:18:58.005Z,90.70
2022-08-27T14:23:57.527Z,90.50
2022-08-27T14:29:01.804Z,90.70
2022-08-27T14:34:06.434Z,91.40
2022-08-27T14:39:10.556Z,91.30
2022-08-27T14:44:13.602Z,92.00
2022-08-27T14:49:26.775Z,92.00
2022-08-27T14:54:33.640Z,92.10
2022-08-27T14:59:37.505Z,91.70
2022-08-27T15:04:40.423Z,91.90
2022-08-27T15:09:47.988Z,91.90
2022-08-27T15:14:50.581Z,92.10
2022-08-27T15:19:53.142Z,92.20
2022-08-27T15:24:57.921Z,92.40
2022-08-27T15:30:01.239Z,92.40
2022-08-27T15:35:09.979Z,93.00
2022-08-27T15:40:15.486Z,92.80
2022-08-27T15:45:18.200Z,92.90
2022-08-27T15:50:21.012Z,92.90
2022-08-27T15:55:26.640Z,93.40
2022-08-27T16:00:32.566Z,93.40
2022-08-27T16:05:37.395Z,93.60
2022-08-27T16:10:39.963Z,93.70
2022-08-27T16:15:42.583Z,93.60
2022-08-27T16:20:45.436Z,93.20
2022-08-27T16:25:47.916Z,93.90
2022-08-27T16:30:52.131Z,94.10
2022-08-27T16:35:55.024Z,94.50
2022-08-27T16:40:57.432Z,94.30
2022-08-27T16:46:01.552Z,94.60
2022-08-27T16:51:07.016Z,94.40
2022-08-27T16:56:11.023Z,95.10
2022-08-27T17:01:19.818Z,95.90
2022-08-27T17:06:22.347Z,96.00
2022-08-27T17:11:30.814Z,95.80
2022-08-27T17:16:36.550Z,96.70
2022-08-27T17:21:39.105Z,98.80
2022-08-27T17:26:41.751Z,99.90
2022-08-27T17:31:44.220Z,99.90
2022-08-27T17:36:47.286Z,99.90
2022-08-27T17:41:51.668Z,99.90
2022-08-27T17:46:57.317Z,99.90
2022-08-27T17:52:08.903Z,99.90
2022-08-27T17:57:22.429Z,99.90
2022-08-27T18:02:36.111Z,99.90
2022-08-27T18:07:40.082Z,99.90
2022-08-27T18:12:44.706Z,99.90
2022-08-27T18:17:47.692Z,99.90
2022-08-27T18:22:52.524Z,99.90
2022-08-27T18:27:57.331Z,99.90
2022-08-27T18:33:00.151Z,99.90
2022-08-27T18:38:02.746Z,99.90
2022-08-27T18:43:05.656Z,99.90
2022-08-27T18:48:15.962Z,99.90
2022-08-27T18:53:22.349Z,99.90
2022-08-27T18:58:25.382Z,99.90
2022-08-27T19:03:31.495Z,99.90
2022-08-27T19:08:34.591Z,99.90
2022-08-27T19:13:38.747Z,99.90
2022-08-27T19:18:41.797Z,99.90
2022-08-27T19:23:44.504Z,99.90
2022-08-27T19:28:47.335Z,99.90
2022-08-27T19:33:50.006Z,99.90
2022-08-27T19:38:53.553Z,99.90
2022-08-27T19:43:56.078Z,99.90
2022-08-27T19:48:59.021Z,99.90
2022-08-27T19:54:01.507Z,99.90
2022-08-27T19:59:17.876Z,99.90
2022-08-27T20:04:23.775Z,99.90
2022-08-27T20:09:26.292Z,99.90
2022-08-27T20:14:28.777Z,99.90
2022-08-27T20:19:33.520Z,99.90
2022-08-27T20:24:37.299Z,99.90
2022-08-27T20:29:41.103Z,99.90
2022-08-27T20:34:44.394Z,99.90
2022-08-27T20:39:48.352Z,99.90
2022-08-27T20:44:50.859Z,99.90
2022-08-27T20:49:53.299Z,99.90
2022-08-27T20:54:55.717Z,99.90
2022-08-27T21:00:16.594Z,99.90
2022-08-27T21:05:19.475Z,99.90
2022-08-27T21:10:21.963Z,99.90
2022-08-27T21:15:24.729Z,99.90
2022-08-27T21:20:27.223Z,99.90
2022-08-27T21:25:29.733Z,99.90
2022-08-27T21:30:32.220Z,99.90
2022-08-27T21:35:34.700Z,99.90
2022-08-27T21:40:37.748Z,99.90
2022-08-27T21:45:41.738Z,99.90
2022-08-27T21:50:44.142Z,99.90
2022-08-27T21:55:46.887Z,99.90
2022-08-27T22:00:50.539Z,99.90
2022-08-27T22:05:53.500Z,99.90
2022-08-27T22:10:58.394Z,99.90
2022-08-27T22:16:00.954Z,99.90
2022-08-27T22:21:04.791Z,99.90
2022-08-27T22:26:07.317Z,99.90
2022-08-27T22:31:09.877Z,99.90
2022-08-27T22:36:12.314Z,99.90
2022-08-27T22:41:18.293Z,99.90
2022-08-27T22:46:21.245Z,99.90
2022-08-27T22:51:24.213Z,99.90
2022-08-27T22:56:26.676Z,99.90
2022-08-27T23:01:29.243Z,99.90
2022-08-27T23:06:31.745Z,99.90
2022-08-27T23:11:34.187Z,99.90
2022-08-27T23:16:37.320Z,99.90
2022-08-27T23:21:39.806Z,99.90
2022-08-27T23:27:01.207Z,99.90
2022-08-27T23:32:04.159Z,99.90
2022-08-27T23:37:06.585Z,99.90
2022-08-27T23:42:09.837Z,99.90
2022-08-27T23:47:13.892Z,99.90
2022-08-27T23:52:16.439Z,99.90
2022-08-27T23:57:19.005Z,99.90
